sensor_id;sensor_type;location;lat;lon;timestamp;pressure;altitude;pressure_sealevel;temperature;humidity
68793;BME280;55778;54.346;10.210;2022-07-03T00:01:10;101452.28;;;16.87;80.13
68793;BME280;55778;54.346;10.210;2022-07-03T00:03:35;101449.03;;;16.83;80.06
68793;BME280;55778;54.346;10.210;2022-07-03T00:06:01;101446.78;;;16.79;80.58
68793;BME280;55778;54.346;10.210;2022-07-03T00:08:26;101437.50;;;16.72;81.14
68793;BME280;55778;54.346;10.210;2022-07-03T00:10:52;101435.94;;;16.69;81.23
68793;BME280;55778;54.346;10.210;2022-07-03T00:13:17;101436.63;;;16.71;81.34
68793;BME280;55778;54.346;10.210;2022-07-03T00:15:42;101431.47;;;16.68;81.47
68793;BME280;55778;54.346;10.210;2022-07-03T00:18:09;101429.41;;;16.70;81.33
68793;BME280;55778;54.346;10.210;2022-07-03T00:20:40;101429.41;;;16.70;81.89
68793;BME280;55778;54.346;10.210;2022-07-03T00:23:09;101422.72;;;16.81;81.47
68793;BME280;55778;54.346;10.210;2022-07-03T00:25:36;101427.03;;;16.83;81.62
68793;BME280;55778;54.346;10.210;2022-07-03T00:28:04;101418.75;;;16.91;81.10
68793;BME280;55778;54.346;10.210;2022-07-03T00:30:30;101413.25;;;16.99;80.78
68793;BME280;55778;54.346;10.210;2022-07-03T00:32:56;101419.31;;;17.03;80.60
68793;BME280;55778;54.346;10.210;2022-07-03T00:35:22;101415.34;;;17.13;80.03
68793;BME280;55778;54.346;10.210;2022-07-03T00:37:48;101407.59;;;17.25;79.48
68793;BME280;55778;54.346;10.210;2022-07-03T00:40:14;101407.06;;;17.21;79.55
68793;BME280;55778;54.346;10.210;2022-07-03T00:42:39;101404.97;;;17.31;79.16
68793;BME280;55778;54.346;10.210;2022-07-03T00:45:07;101400.53;;;17.38;78.87
68793;BME280;55778;54.346;10.210;2022-07-03T00:47:36;101390.72;;;17.52;77.82
68793;BME280;55778;54.346;10.210;2022-07-03T00:50:06;101387.25;;;17.58;76.79
68793;BME280;55778;54.346;10.210;2022-07-03T00:52:32;101382.59;;;17.66;75.90
68793;BME280;55778;54.346;10.210;2022-07-03T00:54:59;101388.28;;;17.65;75.56
68793;BME280;55778;54.346;10.210;2022-07-03T00:57:28;101380.00;;;17.65;75.97
68793;BME280;55778;54.346;10.210;2022-07-03T00:59:54;101380.84;;;17.65;75.09
68793;BME280;55778;54.346;10.210;2022-07-03T01:05:12;101367.75;;;17.75;74.54
68793;BME280;55778;54.346;10.210;2022-07-03T01:07:51;101367.94;;;17.66;75.15
68793;BME280;55778;54.346;10.210;2022-07-03T01:10:37;101358.78;;;17.73;74.55
68793;BME280;55778;54.346;10.210;2022-07-03T01:13:18;101359.94;;;17.79;73.83
68793;BME280;55778;54.346;10.210;2022-07-03T01:18:35;101356.34;;;17.78;73.94
68793;BME280;55778;54.346;10.210;2022-07-03T01:21:08;101351.84;;;17.77;73.99
68793;BME280;55778;54.346;10.210;2022-07-03T01:26:18;101347.56;;;17.75;73.91
68793;BME280;55778;54.346;10.210;2022-07-03T01:28:45;101344.81;;;17.75;73.85
68793;BME280;55778;54.346;10.210;2022-07-03T01:31:14;101337.41;;;17.75;73.56
68793;BME280;55778;54.346;10.210;2022-07-03T01:33:44;101327.91;;;17.78;73.18
68793;BME280;55778;54.346;10.210;2022-07-03T01:36:13;101334.97;;;17.80;73.01
68793;BME280;55778;54.346;10.210;2022-07-03T01:38:40;101333.59;;;17.76;72.51
68793;BME280;55778;54.346;10.210;2022-07-03T01:41:08;101330.47;;;17.88;72.44
68793;BME280;55778;54.346;10.210;2022-07-03T01:43:39;101318.06;;;17.83;72.09
68793;BME280;55778;54.346;10.210;2022-07-03T01:46:04;101327.53;;;17.89;71.48
68793;BME280;55778;54.346;10.210;2022-07-03T01:48:31;101313.56;;;17.91;70.72
68793;BME280;55778;54.346;10.210;2022-07-03T01:50:58;101317.69;;;17.95;69.50
68793;BME280;55778;54.346;10.210;2022-07-03T01:53:28;101315.59;;;17.97;69.81
68793;BME280;55778;54.346;10.210;2022-07-03T01:55:59;101306.81;;;17.93;69.58
68793;BME280;55778;54.346;10.210;2022-07-03T01:58:26;101309.88;;;17.98;68.74
68793;BME280;55778;54.346;10.210;2022-07-03T02:01:07;101304.00;;;18.01;68.23
68793;BME280;55778;54.346;10.210;2022-07-03T02:03:35;101299.91;;;17.97;68.16
68793;BME280;55778;54.346;10.210;2022-07-03T02:06:11;101301.25;;;18.01;67.75
68793;BME280;55778;54.346;10.210;2022-07-03T02:11:27;101298.00;;;17.98;67.55
68793;BME280;55778;54.346;10.210;2022-07-03T02:19:22;101287.78;;;18.06;66.40
68793;BME280;55778;54.346;10.210;2022-07-03T02:21:56;101289.00;;;18.04;65.97
68793;BME280;55778;54.346;10.210;2022-07-03T02:24:23;101287.09;;;18.04;66.11
68793;BME280;55778;54.346;10.210;2022-07-03T02:27:22;101288.84;;;18.05;65.91
68793;BME280;55778;54.346;10.210;2022-07-03T02:29:55;101289.69;;;18.06;65.42
68793;BME280;55778;54.346;10.210;2022-07-03T02:32:25;101292.31;;;17.99;65.73
68793;BME280;55778;54.346;10.210;2022-07-03T02:35:06;101283.50;;;18.04;65.26
68793;BME280;55778;54.346;10.210;2022-07-03T02:37:37;101280.91;;;18.02;64.83
68793;BME280;55778;54.346;10.210;2022-07-03T02:48:27;101275.59;;;18.01;64.78
68793;BME280;55778;54.346;10.210;2022-07-03T02:50:58;101278.53;;;17.99;64.18
68793;BME280;55778;54.346;10.210;2022-07-03T02:56:07;101271.09;;;18.00;64.98
68793;BME280;55778;54.346;10.210;2022-07-03T03:02:03;101269.56;;;17.97;64.02
68793;BME280;55778;54.346;10.210;2022-07-03T03:04:32;101257.00;;;17.95;64.07
68793;BME280;55778;54.346;10.210;2022-07-03T03:07:14;101262.34;;;17.96;64.13
68793;BME280;55778;54.346;10.210;2022-07-03T03:09:42;101257.88;;;17.95;63.90
68793;BME280;55778;54.346;10.210;2022-07-03T03:12:10;101259.75;;;17.95;64.00
68793;BME280;55778;54.346;10.210;2022-07-03T03:17:29;101261.00;;;17.92;63.41
68793;BME280;55778;54.346;10.210;2022-07-03T03:20:02;101247.22;;;17.92;63.79
68793;BME280;55778;54.346;10.210;2022-07-03T03:25:03;101245.81;;;17.88;63.45
68793;BME280;55778;54.346;10.210;2022-07-03T03:27:28;101246.69;;;17.88;63.50
68793;BME280;55778;54.346;10.210;2022-07-03T03:29:54;101243.75;;;17.90;63.81
68793;BME280;55778;54.346;10.210;2022-07-03T03:32:21;101238.78;;;17.85;63.41
68793;BME280;55778;54.346;10.210;2022-07-03T03:34:49;101243.22;;;17.95;63.75
68793;BME280;55778;54.346;10.210;2022-07-03T03:37:15;101244.09;;;17.95;63.56
68793;BME280;55778;54.346;10.210;2022-07-03T03:39:41;101237.75;;;17.86;63.17
68793;BME280;55778;54.346;10.210;2022-07-03T03:42:07;101234.16;;;17.86;64.13
68793;BME280;55778;54.346;10.210;2022-07-03T03:44:33;101241.53;;;17.85;64.39
68793;BME280;55778;54.346;10.210;2022-07-03T03:46:58;101240.84;;;17.83;64.03
68793;BME280;55778;54.346;10.210;2022-07-03T03:49:24;101245.19;;;17.78;64.21
68793;BME280;55778;54.346;10.210;2022-07-03T03:51:49;101243.50;;;17.77;63.85
68793;BME280;55778;54.346;10.210;2022-07-03T03:54:15;101240.75;;;17.77;64.32
68793;BME280;55778;54.346;10.210;2022-07-03T03:56:40;101236.06;;;17.77;64.66
68793;BME280;55778;54.346;10.210;2022-07-03T03:59:06;101241.75;;;17.76;64.30
68793;BME280;55778;54.346;10.210;2022-07-03T04:01:31;101244.88;;;17.73;64.66
68793;BME280;55778;54.346;10.210;2022-07-03T04:03:57;101240.41;;;17.72;64.89
68793;BME280;55778;54.346;10.210;2022-07-03T04:06:24;101237.47;;;17.73;64.71
68793;BME280;55778;54.346;10.210;2022-07-03T04:08:50;101239.53;;;17.71;64.71
68793;BME280;55778;54.346;10.210;2022-07-03T04:11:15;101236.13;;;17.69;64.99
68793;BME280;55778;54.346;10.210;2022-07-03T04:13:40;101240.22;;;17.73;65.01
68793;BME280;55778;54.346;10.210;2022-07-03T04:16:06;101236.25;;;17.76;64.82
68793;BME280;55778;54.346;10.210;2022-07-03T04:18:31;101232.47;;;17.77;64.76
68793;BME280;55778;54.346;10.210;2022-07-03T04:20:57;101239.16;;;17.82;64.96
68793;BME280;55778;54.346;10.210;2022-07-03T04:23:22;101228.63;;;17.86;64.97
68793;BME280;55778;54.346;10.210;2022-07-03T04:25:47;101222.03;;;17.95;64.37
68793;BME280;55778;54.346;10.210;2022-07-03T04:28:13;101225.59;;;18.04;64.25
68793;BME280;55778;54.346;10.210;2022-07-03T04:30:39;101219.50;;;18.08;64.19
68793;BME280;55778;54.346;10.210;2022-07-03T04:33:04;101227.25;;;18.13;64.54
68793;BME280;55778;54.346;10.210;2022-07-03T04:35:30;101228.22;;;18.20;64.37
68793;BME280;55778;54.346;10.210;2022-07-03T04:37:55;101234.59;;;18.20;63.99
68793;BME280;55778;54.346;10.210;2022-07-03T04:40:20;101228.22;;;18.20;64.04
68793;BME280;55778;54.346;10.210;2022-07-03T04:42:46;101237.00;;;18.23;63.67
68793;BME280;55778;54.346;10.210;2022-07-03T04:45:11;101237.84;;;18.24;64.04
68793;BME280;55778;54.346;10.210;2022-07-03T04:47:37;101235.06;;;18.24;64.37
68793;BME280;55778;54.346;10.210;2022-07-03T04:50:02;101237.19;;;18.22;64.83
68793;BME280;55778;54.346;10.210;2022-07-03T04:52:28;101243.78;;;18.35;63.63
68793;BME280;55778;54.346;10.210;2022-07-03T04:54:53;101238.75;;;18.47;63.61
68793;BME280;55778;54.346;10.210;2022-07-03T04:57:19;101245.03;;;18.55;63.05
68793;BME280;55778;54.346;10.210;2022-07-03T04:59:44;101251.44;;;18.56;63.14
68793;BME280;55778;54.346;10.210;2022-07-03T05:02:09;101239.66;;;18.62;62.47
68793;BME280;55778;54.346;10.210;2022-07-03T05:04:35;101234.91;;;18.70;62.63
68793;BME280;55778;54.346;10.210;2022-07-03T05:07:00;101237.66;;;18.70;61.20
68793;BME280;55778;54.346;10.210;2022-07-03T05:09:25;101236.91;;;18.76;61.38
68793;BME280;55778;54.346;10.210;2022-07-03T05:11:51;101234.63;;;18.80;59.61
68793;BME280;55778;54.346;10.210;2022-07-03T05:14:17;101237.19;;;18.81;60.02
68793;BME280;55778;54.346;10.210;2022-07-03T05:16:42;101243.97;;;18.93;61.02
68793;BME280;55778;54.346;10.210;2022-07-03T05:19:08;101249.69;;;18.92;59.58
68793;BME280;55778;54.346;10.210;2022-07-03T05:21:33;101249.13;;;18.96;60.07
68793;BME280;55778;54.346;10.210;2022-07-03T05:23:58;101249.03;;;18.90;60.10
68793;BME280;55778;54.346;10.210;2022-07-03T05:26:24;101249.78;;;18.84;60.34
68793;BME280;55778;54.346;10.210;2022-07-03T05:28:49;101254.81;;;18.80;60.75
68793;BME280;55778;54.346;10.210;2022-07-03T05:31:15;101257.28;;;18.75;60.00
68793;BME280;55778;54.346;10.210;2022-07-03T05:33:40;101257.28;;;18.75;60.35
68793;BME280;55778;54.346;10.210;2022-07-03T05:36:06;101256.53;;;18.81;60.45
68793;BME280;55778;54.346;10.210;2022-07-03T05:38:32;101257.41;;;18.96;60.95
68793;BME280;55778;54.346;10.210;2022-07-03T05:41:16;101245.34;;;19.12;59.61
68793;BME280;55778;54.346;10.210;2022-07-03T05:43:42;101246.78;;;19.22;60.44
68793;BME280;55778;54.346;10.210;2022-07-03T05:46:07;101240.72;;;19.27;60.62
68793;BME280;55778;54.346;10.210;2022-07-03T05:48:33;101242.97;;;19.23;59.39
68793;BME280;55778;54.346;10.210;2022-07-03T05:50:58;101248.19;;;19.18;58.78
68793;BME280;55778;54.346;10.210;2022-07-03T05:53:24;101242.78;;;19.25;60.56
68793;BME280;55778;54.346;10.210;2022-07-03T05:55:49;101242.91;;;19.46;60.85
68793;BME280;55778;54.346;10.210;2022-07-03T05:58:15;101233.72;;;19.60;59.71
68793;BME280;55778;54.346;10.210;2022-07-03T06:00:43;101241.75;;;19.69;58.18
68793;BME280;55778;54.346;10.210;2022-07-03T06:03:09;101244.66;;;19.83;57.96
68793;BME280;55778;54.346;10.210;2022-07-03T06:05:35;101242.34;;;20.01;58.73
68793;BME280;55778;54.346;10.210;2022-07-03T06:08:00;101236.16;;;20.13;57.94
68793;BME280;55778;54.346;10.210;2022-07-03T06:10:27;101235.94;;;20.15;57.26
68793;BME280;55778;54.346;10.210;2022-07-03T06:12:53;101231.44;;;20.14;57.51
68793;BME280;55778;54.346;10.210;2022-07-03T06:15:19;101227.34;;;20.10;57.48
68793;BME280;55778;54.346;10.210;2022-07-03T06:17:44;101238.78;;;20.07;57.59
68793;BME280;55778;54.346;10.210;2022-07-03T06:20:10;101237.28;;;20.04;56.83
68793;BME280;55778;54.346;10.210;2022-07-03T06:22:37;101238.91;;;19.99;56.60
68793;BME280;55778;54.346;10.210;2022-07-03T06:25:03;101241.16;;;20.10;56.60
68793;BME280;55778;54.346;10.210;2022-07-03T06:27:28;101245.38;;;20.20;57.31
68793;BME280;55778;54.346;10.210;2022-07-03T06:29:54;101239.09;;;20.33;56.69
68793;BME280;55778;54.346;10.210;2022-07-03T06:32:19;101247.28;;;20.41;56.06
68793;BME280;55778;54.346;10.210;2022-07-03T06:34:45;101240.28;;;20.45;57.45
68793;BME280;55778;54.346;10.210;2022-07-03T06:37:11;101244.56;;;20.68;55.52
68793;BME280;55778;54.346;10.210;2022-07-03T06:39:37;101245.03;;;20.72;55.45
68793;BME280;55778;54.346;10.210;2022-07-03T06:42:02;101239.16;;;20.81;53.83
68793;BME280;55778;54.346;10.210;2022-07-03T06:44:28;101232.38;;;20.90;54.74
68793;BME280;55778;54.346;10.210;2022-07-03T06:46:53;101229.03;;;20.95;54.28
68793;BME280;55778;54.346;10.210;2022-07-03T06:49:19;101229.25;;;21.21;54.50
68793;BME280;55778;54.346;10.210;2022-07-03T06:51:44;101230.72;;;21.51;52.51
68793;BME280;55778;54.346;10.210;2022-07-03T06:54:10;101227.88;;;21.79;52.07
68793;BME280;55778;54.346;10.210;2022-07-03T06:56:35;101228.66;;;22.13;52.55
68793;BME280;55778;54.346;10.210;2022-07-03T06:59:00;101220.53;;;22.18;51.17
68793;BME280;55778;54.346;10.210;2022-07-03T07:01:26;101225.94;;;22.46;51.70
68793;BME280;55778;54.346;10.210;2022-07-03T07:03:51;101226.22;;;22.77;49.52
68793;BME280;55778;54.346;10.210;2022-07-03T07:06:17;101218.47;;;23.18;48.46
68793;BME280;55778;54.346;10.210;2022-07-03T07:08:42;101224.25;;;22.97;49.64
68793;BME280;55778;54.346;10.210;2022-07-03T07:11:07;101227.47;;;23.13;49.42
68793;BME280;55778;54.346;10.210;2022-07-03T07:13:33;101234.13;;;22.99;50.43
68793;BME280;55778;54.346;10.210;2022-07-03T07:15:59;101242.66;;;22.78;51.67
68793;BME280;55778;54.346;10.210;2022-07-03T07:18:24;101238.38;;;22.95;51.10
68793;BME280;55778;54.346;10.210;2022-07-03T07:20:50;101237.97;;;23.24;50.88
68793;BME280;55778;54.346;10.210;2022-07-03T07:23:15;101240.50;;;23.19;51.04
68793;BME280;55778;54.346;10.210;2022-07-03T07:25:40;101240.53;;;22.61;51.60
68793;BME280;55778;54.346;10.210;2022-07-03T07:28:06;101242.66;;;23.04;51.12
68793;BME280;55778;54.346;10.210;2022-07-03T07:30:31;101232.81;;;23.34;48.55
68793;BME280;55778;54.346;10.210;2022-07-03T07:32:56;101240.69;;;23.57;47.45
68793;BME280;55778;54.346;10.210;2022-07-03T07:35:22;101246.41;;;23.69;47.77
68793;BME280;55778;54.346;10.210;2022-07-03T07:37:47;101245.47;;;22.98;51.27
68793;BME280;55778;54.346;10.210;2022-07-03T07:40:13;101238.38;;;23.28;47.59
68793;BME280;55778;54.346;10.210;2022-07-03T07:42:39;101251.22;;;22.96;50.72
68793;BME280;55778;54.346;10.210;2022-07-03T07:45:04;101250.06;;;23.69;45.89
68793;BME280;55778;54.346;10.210;2022-07-03T07:47:30;101251.84;;;23.18;49.51
68793;BME280;55778;54.346;10.210;2022-07-03T07:49:55;101252.03;;;23.49;49.29
68793;BME280;55778;54.346;10.210;2022-07-03T07:52:20;101246.09;;;23.96;48.23
68793;BME280;55778;54.346;10.210;2022-07-03T07:54:49;101249.34;;;24.31;46.46
68793;BME280;55778;54.346;10.210;2022-07-03T07:57:14;101247.63;;;23.86;47.75
68793;BME280;55778;54.346;10.210;2022-07-03T07:59:40;101245.53;;;23.81;48.32
68793;BME280;55778;54.346;10.210;2022-07-03T08:02:05;101243.78;;;24.31;47.15
68793;BME280;55778;54.346;10.210;2022-07-03T08:04:50;101235.75;;;24.16;46.56
68793;BME280;55778;54.346;10.210;2022-07-03T08:07:34;101241.34;;;24.41;45.33
68793;BME280;55778;54.346;10.210;2022-07-03T08:10:00;101241.97;;;24.12;46.47
68793;BME280;55778;54.346;10.210;2022-07-03T08:12:25;101242.19;;;24.10;46.54
68793;BME280;55778;54.346;10.210;2022-07-03T08:14:50;101241.97;;;24.12;48.15
68793;BME280;55778;54.346;10.210;2022-07-03T08:17:16;101248.50;;;24.61;46.32
68793;BME280;55778;54.346;10.210;2022-07-03T08:19:41;101252.59;;;24.90;45.77
68793;BME280;55778;54.346;10.210;2022-07-03T08:22:07;101242.06;;;24.67;45.39
68793;BME280;55778;54.346;10.210;2022-07-03T08:24:32;101253.47;;;24.22;46.55
68793;BME280;55778;54.346;10.210;2022-07-03T08:26:58;101252.63;;;24.21;46.70
68793;BME280;55778;54.346;10.210;2022-07-03T08:29:23;101249.38;;;24.62;46.75
68793;BME280;55778;54.346;10.210;2022-07-03T08:31:49;101250.69;;;24.59;48.29
68793;BME280;55778;54.346;10.210;2022-07-03T08:34:14;101242.22;;;24.79;47.80
68793;BME280;55778;54.346;10.210;2022-07-03T08:36:43;101251.41;;;24.79;46.61
68793;BME280;55778;54.346;10.210;2022-07-03T08:39:09;101262.38;;;24.43;47.54
68793;BME280;55778;54.346;10.210;2022-07-03T08:41:37;101258.16;;;24.28;48.02
68793;BME280;55778;54.346;10.210;2022-07-03T08:44:04;101258.19;;;23.71;49.37
68793;BME280;55778;54.346;10.210;2022-07-03T08:46:32;101251.81;;;23.57;47.90
68793;BME280;55778;54.346;10.210;2022-07-03T08:49:01;101251.00;;;24.07;49.12
68793;BME280;55778;54.346;10.210;2022-07-03T08:51:27;101254.25;;;24.35;48.49
68793;BME280;55778;54.346;10.210;2022-07-03T08:53:53;101251.84;;;24.45;48.90
68793;BME280;55778;54.346;10.210;2022-07-03T08:56:23;101259.19;;;24.95;44.45
68793;BME280;55778;54.346;10.210;2022-07-03T08:58:48;101250.03;;;24.57;45.66
68793;BME280;55778;54.346;10.210;2022-07-03T09:01:15;101242.09;;;25.59;45.53
68793;BME280;55778;54.346;10.210;2022-07-03T09:03:42;101244.97;;;25.89;43.74
68793;BME280;55778;54.346;10.210;2022-07-03T09:06:07;101253.19;;;25.84;44.49
68793;BME280;55778;54.346;10.210;2022-07-03T09:08:33;101252.50;;;26.06;44.39
68793;BME280;55778;54.346;10.210;2022-07-03T09:10:59;101260.09;;;25.63;44.08
68793;BME280;55778;54.346;10.210;2022-07-03T09:13:24;101267.78;;;25.86;44.25
68793;BME280;55778;54.346;10.210;2022-07-03T09:15:50;101254.78;;;25.98;42.54
68793;BME280;55778;54.346;10.210;2022-07-03T09:18:15;101260.56;;;25.96;42.51
68793;BME280;55778;54.346;10.210;2022-07-03T09:20:41;101258.69;;;25.54;43.18
68793;BME280;55778;54.346;10.210;2022-07-03T09:23:19;101266.63;;;24.08;49.16
68793;BME280;55778;54.346;10.210;2022-07-03T09:26:17;101269.59;;;23.43;50.14
68793;BME280;55778;54.346;10.210;2022-07-03T09:28:50;101262.75;;;23.39;50.81
68793;BME280;55778;54.346;10.210;2022-07-03T09:31:18;101260.34;;;23.62;50.39
68793;BME280;55778;54.346;10.210;2022-07-03T09:34:06;101261.47;;;24.49;49.01
68793;BME280;55778;54.346;10.210;2022-07-03T09:39:28;101267.19;;;24.92;46.39
68793;BME280;55778;54.346;10.210;2022-07-03T09:42:07;101272.81;;;24.85;46.55
68793;BME280;55778;54.346;10.210;2022-07-03T09:44:39;101267.13;;;24.98;46.64
68793;BME280;55778;54.346;10.210;2022-07-03T09:47:18;101272.69;;;24.98;44.27
68793;BME280;55778;54.346;10.210;2022-07-03T09:52:33;101262.06;;;25.99;41.44
68793;BME280;55778;54.346;10.210;2022-07-03T09:57:37;101260.78;;;25.95;41.38
68793;BME280;55778;54.346;10.210;2022-07-03T10:00:25;101267.66;;;25.74;41.93
68793;BME280;55778;54.346;10.210;2022-07-03T10:03:05;101271.28;;;24.89;45.30
68793;BME280;55778;54.346;10.210;2022-07-03T10:05:35;101279.50;;;24.78;45.47
68793;BME280;55778;54.346;10.210;2022-07-03T10:10:31;101267.34;;;25.46;42.22
68793;BME280;55778;54.346;10.210;2022-07-03T10:12:58;101273.56;;;24.99;43.80
68793;BME280;55778;54.346;10.210;2022-07-03T10:15:24;101268.50;;;25.38;42.98
68793;BME280;55778;54.346;10.210;2022-07-03T10:17:52;101264.97;;;25.25;43.77
68793;BME280;55778;54.346;10.210;2022-07-03T10:20:26;101268.72;;;25.12;43.99
68793;BME280;55778;54.346;10.210;2022-07-03T10:22:52;101280.75;;;24.51;45.29
68793;BME280;55778;54.346;10.210;2022-07-03T10:25:18;101283.44;;;24.70;46.58
68793;BME280;55778;54.346;10.210;2022-07-03T10:27:47;101276.34;;;24.74;44.20
68793;BME280;55778;54.346;10.210;2022-07-03T10:30:19;101286.66;;;24.67;45.49
68793;BME280;55778;54.346;10.210;2022-07-03T10:32:46;101276.16;;;24.69;45.13
68793;BME280;55778;54.346;10.210;2022-07-03T10:35:21;101279.97;;;24.37;45.27
68793;BME280;55778;54.346;10.210;2022-07-03T10:37:52;101278.69;;;24.77;46.07
68793;BME280;55778;54.346;10.210;2022-07-03T10:43:36;101277.38;;;25.04;44.00
68793;BME280;55778;54.346;10.210;2022-07-03T10:46:22;101273.44;;;25.12;44.92
68793;BME280;55778;54.346;10.210;2022-07-03T10:49:01;101273.56;;;25.48;43.68
68793;BME280;55778;54.346;10.210;2022-07-03T10:51:29;101270.31;;;26.05;42.28
68793;BME280;55778;54.346;10.210;2022-07-03T11:13:10;101245.34;;;27.34;37.80
68793;BME280;55778;54.346;10.210;2022-07-03T11:28:06;101263.53;;;26.31;39.99
68793;BME280;55778;54.346;10.210;2022-07-03T11:30:32;101257.84;;;26.08;40.14
68793;BME280;55778;54.346;10.210;2022-07-03T11:32:59;101254.72;;;26.45;40.74
68793;BME280;55778;54.346;10.210;2022-07-03T11:35:48;101262.00;;;25.63;40.84
68793;BME280;55778;54.346;10.210;2022-07-03T11:38:16;101257.75;;;26.44;41.45
68793;BME280;55778;54.346;10.210;2022-07-03T11:40:42;101258.22;;;27.23;37.80
68793;BME280;55778;54.346;10.210;2022-07-03T11:43:10;101260.69;;;27.43;38.41
68793;BME280;55778;54.346;10.210;2022-07-03T11:45:38;101257.75;;;27.26;38.04
68793;BME280;55778;54.346;10.210;2022-07-03T11:48:16;101262.44;;;26.91;38.59
68793;BME280;55778;54.346;10.210;2022-07-03T11:50:44;101260.97;;;26.88;38.84
68793;BME280;55778;54.346;10.210;2022-07-03T11:53:50;101257.72;;;26.62;39.94
68793;BME280;55778;54.346;10.210;2022-07-03T11:56:10;101252.00;;;27.21;38.97
68793;BME280;55778;54.346;10.210;2022-07-03T11:58:47;101259.47;;;27.27;38.33
68793;BME280;55778;54.346;10.210;2022-07-03T12:04:13;101256.22;;;28.16;37.75
68793;BME280;55778;54.346;10.210;2022-07-03T12:06:41;101253.81;;;28.64;36.54
68793;BME280;55778;54.346;10.210;2022-07-03T12:09:25;101254.03;;;28.90;35.60
68793;BME280;55778;54.346;10.210;2022-07-03T12:12:10;101256.41;;;28.82;35.01
68793;BME280;55778;54.346;10.210;2022-07-03T12:17:19;101248.44;;;28.46;33.27
68793;BME280;55778;54.346;10.210;2022-07-03T12:22:10;101251.94;;;29.14;31.66
68793;BME280;55778;54.346;10.210;2022-07-03T12:24:36;101248.09;;;28.87;32.50
68793;BME280;55778;54.346;10.210;2022-07-03T12:27:04;101248.19;;;28.47;33.66
68793;BME280;55778;54.346;10.210;2022-07-03T12:29:30;101244.84;;;28.95;34.72
68793;BME280;55778;54.346;10.210;2022-07-03T12:31:56;101245.63;;;29.40;31.10
68793;BME280;55778;54.346;10.210;2022-07-03T12:34:22;101242.16;;;29.33;31.56
68793;BME280;55778;54.346;10.210;2022-07-03T12:36:58;101236.47;;;29.12;32.01
68793;BME280;55778;54.346;10.210;2022-07-03T12:39:40;101236.47;;;29.28;31.66
68793;BME280;55778;54.346;10.210;2022-07-03T12:42:26;101239.00;;;29.13;32.67
68793;BME280;55778;54.346;10.210;2022-07-03T12:44:56;101236.00;;;29.03;32.92
68793;BME280;55778;54.346;10.210;2022-07-03T12:47:22;101229.06;;;28.33;34.70
68793;BME280;55778;54.346;10.210;2022-07-03T12:49:54;101233.56;;;29.07;31.44
68793;BME280;55778;54.346;10.210;2022-07-03T12:52:20;101228.72;;;29.19;32.99
68793;BME280;55778;54.346;10.210;2022-07-03T12:54:45;101227.38;;;29.59;31.39
68793;BME280;55778;54.346;10.210;2022-07-03T12:57:11;101227.25;;;29.49;32.73
68793;BME280;55778;54.346;10.210;2022-07-03T13:00:05;101223.84;;;30.07;31.48
68793;BME280;55778;54.346;10.210;2022-07-03T13:02:33;101224.16;;;28.51;34.08
68793;BME280;55778;54.346;10.210;2022-07-03T13:05:00;101221.00;;;28.48;36.44
68793;BME280;55778;54.346;10.210;2022-07-03T13:07:29;101229.75;;;28.68;35.84
68793;BME280;55778;54.346;10.210;2022-07-03T13:09:55;101233.72;;;29.00;34.57
68793;BME280;55778;54.346;10.210;2022-07-03T13:12:23;101228.09;;;28.83;34.01
68793;BME280;55778;54.346;10.210;2022-07-03T13:14:58;101228.25;;;27.00;37.63
68793;BME280;55778;54.346;10.210;2022-07-03T13:20:29;101218.47;;;27.33;35.96
68793;BME280;55778;54.346;10.210;2022-07-03T13:23:05;101216.91;;;26.84;38.59
68793;BME280;55778;54.346;10.210;2022-07-03T13:25:33;101211.13;;;27.32;38.53
68793;BME280;55778;54.346;10.210;2022-07-03T13:30:33;101211.69;;;27.91;35.42
68793;BME280;55778;54.346;10.210;2022-07-03T13:32:59;101211.47;;;27.58;36.40
68793;BME280;55778;54.346;10.210;2022-07-03T13:35:27;101214.19;;;27.30;37.80
68793;BME280;55778;54.346;10.210;2022-07-03T13:37:55;101211.84;;;27.04;38.29
68793;BME280;55778;54.346;10.210;2022-07-03T13:40:20;101213.81;;;26.51;39.85
68793;BME280;55778;54.346;10.210;2022-07-03T13:42:46;101201.41;;;25.27;41.02
68793;BME280;55778;54.346;10.210;2022-07-03T13:45:11;101195.06;;;25.74;41.05
68793;BME280;55778;54.346;10.210;2022-07-03T13:47:37;101202.09;;;25.22;43.49
68793;BME280;55778;54.346;10.210;2022-07-03T13:50:03;101199.59;;;25.39;42.66
68793;BME280;55778;54.346;10.210;2022-07-03T13:52:29;101195.94;;;25.38;43.72
68793;BME280;55778;54.346;10.210;2022-07-03T13:54:54;101193.72;;;25.65;42.07
68793;BME280;55778;54.346;10.210;2022-07-03T13:57:20;101192.72;;;25.89;40.09
68793;BME280;55778;54.346;10.210;2022-07-03T13:59:45;101181.50;;;25.60;42.10
68793;BME280;55778;54.346;10.210;2022-07-03T14:02:10;101183.78;;;25.69;42.38
68793;BME280;55778;54.346;10.210;2022-07-03T14:04:36;101181.47;;;25.96;40.81
68793;BME280;55778;54.346;10.210;2022-07-03T14:07:02;101187.97;;;25.60;42.85
68793;BME280;55778;54.346;10.210;2022-07-03T14:09:27;101183.38;;;25.29;44.17
68793;BME280;55778;54.346;10.210;2022-07-03T14:11:52;101177.09;;;25.52;43.35
68793;BME280;55778;54.346;10.210;2022-07-03T14:14:18;101184.59;;;25.70;42.62
68793;BME280;55778;54.346;10.210;2022-07-03T14:16:43;101182.34;;;25.96;40.95
68793;BME280;55778;54.346;10.210;2022-07-03T14:19:09;101178.53;;;26.09;40.83
68793;BME280;55778;54.346;10.210;2022-07-03T14:21:34;101173.91;;;26.14;41.02